Date,TemperatureHighF,TemperatureAvgF,TemperatureLowF,DewpointHighF,DewpointAvgF,DewpointLowF,HumidityHigh,HumidityAvg,HumidityLow,PressureMaxIn,PressureMinIn,WindSpeedMaxMPH,WindSpeedAvgMPH,GustSpeedMaxMPH,PrecipitationSumIn
2013-3-1,39.3,35.4,29.2,33.0,29.7,28.0,94,80,67,28.92,25.02,7,1,0,0.00
2013-3-2,41.4,35.9,30.0,31.0,27.5,25.0,82,72,62,28.16,22.42,5,1,0,0.00
2013-3-3,39.6,34.1,31.4,32.0,28.3,25.0,92,79,71,30.04,24.25,5,0,0,0.01
2013-3-4,39.2,33.4,28.7,27.0,24.2,21.0,80,70,57,28.93,23.28,12,2,0,0.01
2013-3-5,44.6,35.1,28.5,31.0,26.3,23.0,89,71,54,28.02,23.28,12,1,0,0.00
2013-3-6,39.3,35.3,32.3,34.0,31.9,30.0,92,87,72,27.91,24.69,10,2,0,0.12
2013-3-7,33.1,31.3,29.9,31.0,28.4,26.0,91,89,83,27.61,24.63,17,5,0,0.11
2013-3-8,36.6,31.1,28.9,34.0,29.0,25.0,95,91,77,26.90,24.29,12,3,0,0.01
2013-3-9,49.9,35.3,24.7,31.0,24.6,21.0,91,67,38,27.76,23.69,9,1,0,0.39
2013-3-10,43.8,32.8,20.2,32.0,26.9,18.0,93,80,62,27.13,27.13,5,0,0,0.00
2013-3-11,52.1,41.2,31.6,39.0,34.3,29.0,91,78,53,28.01,23.47,6,0,0,0.00
2013-3-12,54.5,47.9,40.5,52.0,45.8,38.0,95,92,82,26.57,24.82,4,0,0,0.40
2013-3-13,50.5,41.9,30.8,49.0,31.3,20.0,95,69,39,27.91,24.12,5,0,0,0.01
2013-3-14,35.5,30.0,21.8,24.0,15.8,7.0,75,56,45,25.22,24.82,7,1,0,0.01
2013-3-15,39.7,28.5,18.4,27.0,13.2,5.0,79,54,32,28.36,23.69,7,1,0,0.00
2013-3-16,38.6,32.2,26.2,25.0,16.8,12.0,77,54,36,26.69,24.79,6,0,0,0.00
2013-3-17,37.4,28.7,20.0,18.0,12.0,6.0,82,52,32,25.00,23.98,10,1,0,0.00
2013-3-18,37.1,27.6,14.1,25.0,10.5,3.0,87,51,28,25.05,24.74,2,0,0,0.00
2013-3-19,33.6,31.2,27.2,32.0,29.4,25.0,93,92,88,27.96,24.20,6,1,0,0.22
2013-3-20,37.4,28.8,23.0,25.0,22.4,19.0,92,78,54,26.39,23.86,7,1,0,0.41
2013-3-21,36.7,27.6,17.1,27.0,20.1,14.0,90,75,46,27.69,24.77,4,0,0,0.12
2013-3-22,38.7,31.6,25.0,24.0,20.5,19.0,90,65,46,27.69,23.91,4,1,0,0.09
2013-3-23,42.5,33.7,24.6,23.0,20.6,18.0,79,60,41,26.66,23.92,10,2,0,0.01
2013-3-24,45.6,36.1,29.4,26.0,23.2,20.0,80,61,45,25.25,24.79,9,1,0,0.00
2013-3-25,42.4,34.8,27.2,32.0,28.1,23.0,87,77,66,25.11,23.99,12,1,0,0.00
2013-3-26,49.6,39.3,32.5,30.0,26.1,22.0,79,61,36,25.10,24.73,6,1,0,0.00
2013-3-27,52.3,39.4,23.9,31.0,25.6,20.0,86,61,38,25.04,24.98,17,1,0,0.00
2013-3-28,48.8,40.8,34.1,35.0,32.7,30.0,92,74,50,25.31,24.88,6,1,0,0.01
2013-3-29,56.4,42.4,27.5,36.0,31.2,25.0,92,67,38,26.36,24.92,10,0,0,0.00
2013-3-30,57.2,43.7,30.4,33.0,25.7,18.0,88,54,26,27.62,25.00,8,1,0,0.00
2013-3-31,60.6,43.1,24.3,39.0,27.3,19.0,83,58,29,27.62,24.99,5,1,0,0.02